Wilmington, North Carolina
Current Conditions -  °F | °C
As of 8:53 AM on Saturday 22 Nov 2014 (Local Time) from KILM Reporting Station
Clear Clear  
Wind Chill: 40°   Ceiling: Unl
Heat Index: 44°   Visibility: 10mi
Dew Point: 28°   Wind: 8mph
Humidity: 53%   Direction: 30°NNE
Pressure: 30.57"   Gusts: NA
Location:  34.24°N, 77.94°W
Report Text: KILM 221353Z 03007KT 10SM CLR 07/M02 A3057 RMK AO2 SLP351 T00671022
Loading
Personal Weather Stations






























Interactive Weather Map New forecast layout! Learn more

10-Day Weather Forecast

Advertisements
Track Severe Weather on mobile